createdAt,value
2022-11-19T00:02:01.116Z,100.00
2022-11-19T00:04:29.128Z,100.00
2022-11-19T00:06:58.550Z,100.00
2022-11-19T00:09:26.622Z,100.00
2022-11-19T00:12:11.774Z,100.00
2022-11-19T00:14:39.737Z,100.00
2022-11-19T00:17:07.664Z,100.00
2022-11-19T00:19:35.589Z,100.00
2022-11-19T00:22:04.885Z,100.00
2022-11-19T00:24:32.814Z,100.00
2022-11-19T00:27:00.745Z,100.00
2022-11-19T00:29:28.650Z,100.00
2022-11-19T00:31:56.576Z,100.00
2022-11-19T00:34:24.491Z,100.00
2022-11-19T00:36:52.417Z,100.00
2022-11-19T00:39:22.270Z,100.00
2022-11-19T00:41:50.380Z,100.00
2022-11-19T00:44:18.332Z,100.00
2022-11-19T00:46:46.285Z,100.00
2022-11-19T00:49:14.186Z,100.00
2022-11-19T00:51:42.111Z,100.00
2022-11-19T00:54:10.033Z,100.00
2022-11-19T00:56:39.361Z,100.00
2022-11-19T00:59:07.316Z,100.00
2022-11-19T01:01:35.334Z,100.00
2022-11-19T01:04:03.348Z,100.00
2022-11-19T01:06:31.516Z,100.00
2022-11-19T01:08:59.675Z,100.00
2022-11-19T01:11:29.048Z,100.00
2022-11-19T01:13:59.709Z,100.00
2022-11-19T01:16:29.659Z,100.00
2022-11-19T01:18:58.049Z,100.00
2022-11-19T01:21:29.232Z,100.00
2022-11-19T01:23:58.223Z,100.00
2022-11-19T01:26:26.933Z,100.00
2022-11-19T01:28:55.709Z,100.00
2022-11-19T01:31:26.815Z,100.00
2022-11-19T01:33:55.544Z,100.00
2022-11-19T01:36:26.000Z,100.00
2022-11-19T01:38:54.699Z,100.00
2022-11-19T01:41:24.623Z,100.00
2022-11-19T01:43:56.176Z,100.00
2022-11-19T01:46:27.388Z,100.00
2022-11-19T01:48:59.833Z,100.00
2022-11-19T01:51:31.742Z,100.00
2022-11-19T01:54:04.974Z,100.00
2022-11-19T01:56:33.263Z,100.00
2022-11-19T01:59:05.188Z,100.00
2022-11-19T02:01:34.959Z,100.00
2022-11-19T02:04:03.984Z,100.00
2022-11-19T02:06:32.389Z,100.00
2022-11-19T02:09:00.325Z,100.00
2022-11-19T02:12:10.529Z,100.00
2022-11-19T02:15:07.228Z,100.00
2022-11-19T02:18:08.433Z,100.00
2022-11-19T02:20:46.782Z,100.00
2022-11-19T02:23:54.234Z,100.00
2022-11-19T02:27:06.876Z,100.00
2022-11-19T02:30:10.117Z,100.00
2022-11-19T02:33:00.912Z,100.00
2022-11-19T02:35:40.520Z,100.00
2022-11-19T02:38:17.513Z,100.00
2022-11-19T02:40:50.004Z,100.00
2022-11-19T02:43:23.004Z,100.00
2022-11-19T02:45:57.413Z,100.00
2022-11-19T02:48:29.876Z,100.00
2022-11-19T02:51:02.053Z,100.00
2022-11-19T02:53:30.245Z,100.00
2022-11-19T02:56:13.537Z,100.00
2022-11-19T02:59:14.992Z,100.00
2022-11-19T03:02:04.979Z,100.00
2022-11-19T03:04:34.059Z,100.00
2022-11-19T03:07:06.543Z,100.00
2022-11-19T03:09:39.077Z,100.00
2022-11-19T03:12:18.549Z,100.00
2022-11-19T03:15:12.680Z,100.00
2022-11-19T03:17:54.881Z,100.00
2022-11-19T03:20:27.910Z,100.00
2022-11-19T03:23:01.757Z,100.00
2022-11-19T03:25:34.352Z,100.00
2022-11-19T03:28:06.504Z,100.00
2022-11-19T03:30:34.783Z,100.00
2022-11-19T03:33:08.816Z,100.00
2022-11-19T03:35:42.015Z,100.00
2022-11-19T03:38:14.620Z,100.00
2022-11-19T03:40:43.948Z,100.00
2022-11-19T03:43:17.881Z,100.00
2022-11-19T03:45:48.693Z,100.00
2022-11-19T03:48:18.624Z,100.00
2022-11-19T03:50:51.024Z,100.00
2022-11-19T03:53:20.489Z,100.00
2022-11-19T03:55:53.961Z,100.00
2022-11-19T03:58:25.407Z,100.00
2022-11-19T04:00:53.723Z,100.00
2022-11-19T04:03:23.078Z,100.00
2022-11-19T04:05:51.005Z,100.00
2022-11-19T04:08:18.971Z,100.00
2022-11-19T04:10:46.892Z,100.00
2022-11-19T04:13:14.796Z,100.00
2022-11-19T04:15:42.721Z,100.00
2022-11-19T04:18:10.691Z,100.00
2022-11-19T04:20:39.975Z,100.00
2022-11-19T04:23:07.916Z,100.00
2022-11-19T04:25:35.852Z,100.00
2022-11-19T04:28:03.900Z,100.00
2022-11-19T04:30:31.848Z,100.00
2022-11-19T04:32:59.803Z,100.00
2022-11-19T04:35:27.912Z,100.00
2022-11-19T04:37:57.225Z,100.00
2022-11-19T04:40:25.142Z,100.00
2022-11-19T04:42:53.044Z,100.00
2022-11-19T04:45:20.976Z,100.00
2022-11-19T04:47:48.912Z,100.00
2022-11-19T04:50:17.050Z,100.00
2022-11-19T04:52:44.947Z,100.00
2022-11-19T04:55:14.253Z,100.00
2022-11-19T04:57:42.223Z,100.00
2022-11-19T05:00:11.300Z,100.00
2022-11-19T05:02:39.189Z,100.00
2022-11-19T05:05:08.173Z,100.00
2022-11-19T05:07:36.207Z,100.00
2022-11-19T05:10:05.061Z,100.00
2022-11-19T05:12:34.369Z,100.00
2022-11-19T05:15:02.288Z,100.00
2022-11-19T05:17:30.233Z,100.00
2022-11-19T05:19:59.631Z,100.00
2022-11-19T05:22:27.581Z,100.00
2022-11-19T05:24:55.505Z,100.00
2022-11-19T05:27:23.488Z,100.00
2022-11-19T05:29:52.836Z,100.00
2022-11-19T05:32:20.732Z,100.00
2022-11-19T05:34:48.628Z,100.00
2022-11-19T05:37:16.569Z,100.00
2022-11-19T05:39:44.491Z,100.00
2022-11-19T05:42:12.393Z,100.00
2022-11-19T05:44:40.317Z,100.00
2022-11-19T05:47:09.629Z,100.00
2022-11-19T05:49:37.569Z,100.00
2022-11-19T05:52:06.116Z,100.00
2022-11-19T05:54:34.182Z,100.00
2022-11-19T05:57:02.106Z,100.00
2022-11-19T05:59:30.034Z,100.00
2022-11-19T06:01:57.979Z,100.00
2022-11-19T06:04:27.296Z,100.00
2022-11-19T06:06:55.245Z,100.00
2022-11-19T06:09:23.341Z,100.00
2022-11-19T06:11:51.401Z,100.00
2022-11-19T06:14:22.148Z,100.00
2022-11-19T06:16:51.452Z,100.00
2022-11-19T06:19:20.393Z,100.00
2022-11-19T06:21:50.528Z,100.00
2022-11-19T06:24:18.851Z,100.00
2022-11-19T06:26:46.797Z,100.00
2022-11-19T06:29:15.920Z,100.00
2022-11-19T06:31:43.917Z,100.00
2022-11-19T06:34:12.126Z,100.00
2022-11-19T06:36:44.887Z,100.00
2022-11-19T06:39:18.486Z,100.00
2022-11-19T06:41:48.847Z,100.00
2022-11-19T06:44:16.928Z,100.00
2022-11-19T06:46:44.872Z,100.00
2022-11-19T06:49:18.429Z,100.00
2022-11-19T06:51:47.979Z,100.00
2022-11-19T06:54:15.899Z,100.00
2022-11-19T06:56:45.186Z,100.00
2022-11-19T06:59:13.118Z,100.00
2022-11-19T07:01:41.090Z,100.00
2022-11-19T07:04:09.121Z,100.00
2022-11-19T07:06:37.029Z,100.00
2022-11-19T07:09:04.977Z,100.00
2022-11-19T07:11:32.908Z,100.00
2022-11-19T07:14:03.909Z,100.00
2022-11-19T07:16:34.550Z,100.00
2022-11-19T07:19:04.560Z,100.00
2022-11-19T07:21:32.968Z,100.00
2022-11-19T07:24:02.417Z,100.00
2022-11-19T07:26:32.256Z,100.00
2022-11-19T07:29:05.051Z,100.00
2022-11-19T07:31:33.452Z,100.00
2022-11-19T07:34:01.492Z,100.00
2022-11-19T07:36:29.463Z,100.00
2022-11-19T07:38:58.529Z,100.00
2022-11-19T07:41:43.908Z,100.00
2022-11-19T07:44:13.207Z,100.00
2022-11-19T07:46:41.524Z,100.00
2022-11-19T07:49:09.519Z,100.00
2022-11-19T07:51:37.540Z,100.00
2022-11-19T07:54:05.720Z,100.00
2022-11-19T07:56:33.689Z,100.00
2022-11-19T07:59:02.079Z,96.57
2022-11-19T08:01:31.613Z,100.00
2022-11-19T08:03:59.742Z,99.30
2022-11-19T08:06:29.939Z,99.32
2022-11-19T08:08:58.138Z,95.25
2022-11-19T08:11:26.340Z,97.04
2022-11-19T08:13:54.405Z,95.71
2022-11-19T08:16:36.615Z,97.70
2022-11-19T08:19:08.327Z,99.15
2022-11-19T08:21:37.045Z,96.00
2022-11-19T08:24:05.426Z,94.07
2022-11-19T08:26:33.346Z,96.89
2022-11-19T08:29:01.324Z,96.55
2022-11-19T08:31:29.541Z,96.68
2022-11-19T08:33:57.445Z,94.80
2022-11-19T08:36:26.808Z,98.26
2022-11-19T08:38:57.338Z,97.32
2022-11-19T08:41:48.533Z,91.87
2022-11-19T08:44:17.996Z,92.56
2022-11-19T08:46:46.473Z,93.22
2022-11-19T08:49:14.844Z,91.41
2022-11-19T08:51:44.129Z,88.26
2022-11-19T08:54:13.195Z,89.15
2022-11-19T08:56:41.154Z,80.08
2022-11-19T08:59:09.156Z,87.07
2022-11-19T09:01:37.128Z,82.47
2022-11-19T09:04:05.212Z,86.65
2022-11-19T09:06:35.783Z,87.62
2022-11-19T09:09:05.807Z,84.49
2022-11-19T09:11:37.266Z,88.38
2022-11-19T09:14:07.551Z,89.24
2022-11-19T09:16:38.556Z,86.86
2022-11-19T09:19:06.456Z,91.92
2022-11-19T09:21:34.396Z,88.38
2022-11-19T09:24:02.331Z,84.91
2022-11-19T09:26:31.647Z,87.25
2022-11-19T09:28:59.588Z,81.14
2022-11-19T09:31:27.521Z,83.04
2022-11-19T09:33:55.617Z,80.88
2022-11-19T09:36:23.565Z,81.49
2022-11-19T09:38:51.503Z,81.03
2022-11-19T09:41:51.282Z,81.43
2022-11-19T09:44:33.472Z,78.49
2022-11-19T09:47:13.512Z,81.92
2022-11-19T09:49:46.437Z,82.53
2022-11-19T09:52:18.004Z,81.15
2022-11-19T09:54:49.556Z,80.86
2022-11-19T09:57:27.852Z,81.14
2022-11-19T09:59:59.985Z,79.29
2022-11-19T10:02:28.848Z,81.60
2022-11-19T10:04:57.263Z,76.60
2022-11-19T10:07:36.354Z,80.83
2022-11-19T10:10:16.676Z,81.07
2022-11-19T10:13:11.877Z,79.41
2022-11-19T10:15:53.051Z,79.25
2022-11-19T10:18:31.028Z,79.88
2022-11-19T10:21:06.155Z,81.32
2022-11-19T10:23:45.756Z,78.74
2022-11-19T10:26:17.096Z,80.99
2022-11-19T10:28:53.890Z,78.00
2022-11-19T10:31:30.325Z,79.00
2022-11-19T10:34:05.754Z,75.91
2022-11-19T10:36:39.447Z,72.71
2022-11-19T10:39:15.871Z,76.54
2022-11-19T10:41:49.442Z,73.07
2022-11-19T10:44:40.329Z,72.50
2022-11-19T10:47:14.332Z,72.13
2022-11-19T10:49:43.560Z,73.62
2022-11-19T10:52:23.557Z,74.68
2022-11-19T10:54:53.903Z,75.60
2022-11-19T10:57:23.321Z,73.98
2022-11-19T10:59:54.887Z,75.45
2022-11-19T11:02:30.651Z,77.54
2022-11-19T11:05:17.589Z,76.88
2022-11-19T11:07:51.553Z,73.95
2022-11-19T11:10:36.209Z,72.39
2022-11-19T11:13:37.879Z,76.00
2022-11-19T11:16:09.368Z,73.58
2022-11-19T11:18:40.738Z,74.75
2022-11-19T11:21:13.203Z,75.53
2022-11-19T11:23:51.190Z,74.42
2022-11-19T11:26:23.013Z,77.22
2022-11-19T11:29:01.135Z,76.38
2022-11-19T11:31:36.604Z,74.64
2022-11-19T11:34:06.211Z,73.55
2022-11-19T11:36:37.228Z,74.65
2022-11-19T11:39:06.772Z,76.79
2022-11-19T11:44:30.134Z,76.04
2022-11-19T11:47:03.725Z,77.25
2022-11-19T11:49:35.127Z,74.73
2022-11-19T11:52:08.415Z,76.22
2022-11-19T11:54:37.373Z,77.93
2022-11-19T11:57:18.749Z,78.22
2022-11-19T11:59:47.190Z,76.51
2022-11-19T12:02:27.298Z,75.97
2022-11-19T12:04:56.806Z,74.42
2022-11-19T12:07:59.230Z,73.41
2022-11-19T12:10:31.548Z,75.01
2022-11-19T12:13:17.728Z,77.09
2022-11-19T12:15:56.293Z,76.40
2022-11-19T12:18:38.532Z,78.58
2022-11-19T12:21:12.019Z,75.52
2022-11-19T12:23:59.679Z,75.36
2022-11-19T12:26:36.593Z,72.96
2022-11-19T12:29:19.431Z,76.22
2022-11-19T12:32:08.611Z,73.83
2022-11-19T12:34:52.030Z,73.05
2022-11-19T12:37:33.824Z,72.24
2022-11-19T12:40:13.149Z,71.05
2022-11-19T12:42:53.555Z,67.13
2022-11-19T12:45:30.656Z,72.66
2022-11-19T12:48:18.062Z,70.90
2022-11-19T12:50:57.366Z,71.11
2022-11-19T12:53:45.091Z,70.90
2022-11-19T12:56:25.240Z,68.14
2022-11-19T12:59:03.733Z,68.31
2022-11-19T13:01:36.963Z,70.13
2022-11-19T13:04:12.566Z,71.55
2022-11-19T13:06:48.506Z,68.75
2022-11-19T13:09:19.780Z,68.86
2022-11-19T13:11:53.921Z,69.27
2022-11-19T13:14:28.875Z,66.84
2022-11-19T13:16:58.120Z,67.77
2022-11-19T13:19:30.384Z,73.05
2022-11-19T13:22:06.427Z,72.26
2022-11-19T13:24:40.947Z,71.22
2022-11-19T13:27:18.828Z,71.05
2022-11-19T13:29:54.136Z,72.18
2022-11-19T13:32:26.865Z,73.88
2022-11-19T13:35:04.576Z,75.06
2022-11-19T13:37:44.883Z,74.84
2022-11-19T13:40:21.022Z,76.17
2022-11-19T13:46:06.581Z,76.83
2022-11-19T13:48:39.692Z,77.94
2022-11-19T13:51:11.132Z,73.67
2022-11-19T13:53:45.032Z,73.67
2022-11-19T13:56:15.585Z,73.69
2022-11-19T13:58:48.445Z,74.59
2022-11-19T14:01:55.232Z,76.28
2022-11-19T14:04:46.881Z,76.86
2022-11-19T14:07:33.831Z,78.11
2022-11-19T14:10:15.285Z,78.02
2022-11-19T14:13:08.204Z,78.21
2022-11-19T14:16:13.908Z,77.28
2022-11-19T14:19:03.773Z,77.21
2022-11-19T14:22:09.798Z,80.14
2022-11-19T14:25:14.517Z,81.44
2022-11-19T14:27:44.686Z,82.22
2022-11-19T14:30:18.692Z,82.84
2022-11-19T14:32:48.379Z,82.05
2022-11-19T14:35:36.237Z,82.76
2022-11-19T14:38:39.176Z,84.13
2022-11-19T14:41:22.253Z,83.83
2022-11-19T14:44:11.610Z,84.41
2022-11-19T14:46:42.153Z,83.33
2022-11-19T14:49:34.865Z,84.34
2022-11-19T14:52:04.028Z,83.58
2022-11-19T14:54:37.065Z,83.82
2022-11-19T14:57:16.780Z,85.75
2022-11-19T14:59:52.543Z,85.83
2022-11-19T15:02:25.980Z,84.58
2022-11-19T15:04:58.779Z,85.11
2022-11-19T15:07:42.227Z,86.18
2022-11-19T15:10:29.566Z,86.75
2022-11-19T15:13:20.445Z,85.83
2022-11-19T15:15:54.004Z,85.04
2022-11-19T15:18:55.862Z,85.75
2022-11-19T15:21:47.657Z,86.32
2022-11-19T15:24:29.580Z,86.07
2022-11-19T15:27:05.979Z,87.29
2022-11-19T15:29:57.118Z,88.39
2022-11-19T15:32:35.864Z,89.54
2022-11-19T15:35:32.863Z,89.76
2022-11-19T15:38:06.645Z,89.14
2022-11-19T15:40:36.357Z,90.04
2022-11-19T15:43:12.442Z,90.81
2022-11-19T15:45:46.100Z,91.42
2022-11-19T15:48:20.377Z,91.72
2022-11-19T15:50:49.731Z,91.76
2022-11-19T15:53:19.843Z,92.50
2022-11-19T15:55:52.810Z,93.06
2022-11-19T15:58:25.801Z,93.69
2022-11-19T16:00:55.616Z,93.84
2022-11-19T16:03:25.921Z,94.52
2022-11-19T16:06:02.986Z,94.76
2022-11-19T16:08:31.603Z,96.03
2022-11-19T16:11:20.560Z,96.46
2022-11-19T16:14:09.297Z,95.90
2022-11-19T16:16:54.849Z,96.22
2022-11-19T16:19:24.631Z,96.41
2022-11-19T16:21:57.335Z,96.23
2022-11-19T16:24:44.929Z,96.75
2022-11-19T16:27:19.498Z,95.88
2022-11-19T16:29:47.847Z,96.42
2022-11-19T16:32:19.016Z,97.86
2022-11-19T16:34:48.582Z,96.39
2022-11-19T16:37:18.543Z,95.58
2022-11-19T16:39:51.988Z,95.52
2022-11-19T16:42:26.136Z,95.84
2022-11-19T16:44:56.371Z,97.00
2022-11-19T16:47:30.253Z,96.66
2022-11-19T16:50:04.996Z,96.74
2022-11-19T16:52:40.967Z,96.41
2022-11-19T16:55:40.538Z,96.94
2022-11-19T16:58:16.262Z,97.42
2022-11-19T17:00:49.117Z,97.54
2022-11-19T17:03:24.585Z,100.00
2022-11-19T17:05:54.874Z,100.00
2022-11-19T17:08:25.268Z,100.00
2022-11-19T17:11:35.082Z,100.00
2022-11-19T17:14:23.723Z,100.00
2022-11-19T17:16:53.367Z,100.00
2022-11-19T17:19:28.903Z,100.00
2022-11-19T17:22:01.614Z,100.00
2022-11-19T17:24:33.145Z,100.00
2022-11-19T17:27:01.518Z,100.00
2022-11-19T17:29:29.549Z,100.00
2022-11-19T17:31:57.920Z,100.00
2022-11-19T17:34:32.061Z,100.00
2022-11-19T17:37:01.535Z,100.00
2022-11-19T17:39:29.484Z,100.00
2022-11-19T17:42:15.709Z,100.00
2022-11-19T17:44:43.833Z,100.00
2022-11-19T17:47:24.050Z,100.00
2022-11-19T17:49:52.853Z,100.00
2022-11-19T17:52:24.781Z,100.00
2022-11-19T17:54:55.017Z,100.00
2022-11-19T17:57:23.045Z,100.00
2022-11-19T17:59:51.210Z,100.00
2022-11-19T18:02:21.378Z,100.00
2022-11-19T18:04:50.010Z,100.00
2022-11-19T18:07:18.017Z,100.00
2022-11-19T18:09:47.571Z,100.00
2022-11-19T18:12:17.724Z,100.00
2022-11-19T18:14:46.274Z,100.00
2022-11-19T18:17:15.523Z,100.00
2022-11-19T18:19:43.603Z,100.00
2022-11-19T18:22:18.174Z,100.00
2022-11-19T18:24:49.951Z,100.00
2022-11-19T18:27:18.602Z,100.00
2022-11-19T18:29:46.853Z,100.00
2022-11-19T18:32:17.051Z,100.00
2022-11-19T18:34:46.121Z,100.00
2022-11-19T18:37:14.145Z,100.00
2022-11-19T18:39:42.089Z,100.00
2022-11-19T18:42:12.903Z,100.00
2022-11-19T18:44:43.371Z,100.00
2022-11-19T18:47:12.684Z,100.00
2022-11-19T18:49:41.129Z,100.00
2022-11-19T18:52:12.209Z,100.00
2022-11-19T18:54:40.151Z,100.00
2022-11-19T18:57:08.093Z,100.00
2022-11-19T18:59:37.405Z,100.00
2022-11-19T19:02:05.592Z,100.00
2022-11-19T19:04:33.743Z,100.00
2022-11-19T19:07:01.807Z,100.00
2022-11-19T19:09:29.816Z,100.00
2022-11-19T19:12:15.146Z,100.00
2022-11-19T19:14:45.543Z,100.00
2022-11-19T19:17:14.380Z,100.00
2022-11-19T19:19:42.870Z,100.00
2022-11-19T19:22:10.840Z,100.00
2022-11-19T19:24:38.993Z,100.00
2022-11-19T19:27:06.981Z,100.00
2022-11-19T19:29:34.964Z,100.00
2022-11-19T19:32:04.406Z,100.00
2022-11-19T19:34:32.341Z,100.00
2022-11-19T19:37:00.307Z,100.00
2022-11-19T19:39:28.266Z,100.00
2022-11-19T19:41:56.237Z,100.00
2022-11-19T19:44:24.170Z,100.00
2022-11-19T19:46:52.158Z,100.00
2022-11-19T19:49:22.299Z,100.00
2022-11-19T19:51:50.987Z,100.00
2022-11-19T19:54:18.926Z,100.00
2022-11-19T19:56:46.885Z,100.00
2022-11-19T19:59:15.348Z,100.00
2022-11-19T20:01:47.504Z,100.00
2022-11-19T20:04:15.660Z,100.00
2022-11-19T20:06:47.885Z,100.00
2022-11-19T20:09:15.869Z,100.00
2022-11-19T20:11:43.820Z,100.00
2022-11-19T20:14:11.830Z,100.00
2022-11-19T20:16:41.959Z,100.00
2022-11-19T20:19:13.188Z,100.00
2022-11-19T20:21:41.378Z,100.00
2022-11-19T20:24:12.958Z,100.00
2022-11-19T20:26:42.667Z,100.00
2022-11-19T20:29:12.911Z,100.00
2022-11-19T20:31:41.869Z,100.00
2022-11-19T20:34:12.052Z,100.00
2022-11-19T20:36:40.261Z,100.00
2022-11-19T20:39:08.296Z,100.00
2022-11-19T20:41:55.829Z,100.00
2022-11-19T20:44:24.160Z,100.00
2022-11-19T20:46:54.567Z,100.00
2022-11-19T20:49:25.342Z,100.00
2022-11-19T20:51:54.426Z,100.00
2022-11-19T20:54:22.975Z,100.00
2022-11-19T20:56:53.936Z,100.00
2022-11-19T20:59:22.566Z,100.00
2022-11-19T21:01:51.491Z,100.00
2022-11-19T21:04:19.846Z,100.00
2022-11-19T21:06:49.980Z,100.00
2022-11-19T21:09:19.593Z,100.00
2022-11-19T21:11:48.139Z,100.00
2022-11-19T21:14:17.493Z,100.00
2022-11-19T21:16:45.496Z,100.00
2022-11-19T21:19:14.150Z,100.00
2022-11-19T21:21:42.450Z,100.00
2022-11-19T21:24:10.472Z,100.00
2022-11-19T21:26:38.502Z,100.00
2022-11-19T21:29:06.441Z,100.00
2022-11-19T21:31:42.431Z,100.00
2022-11-19T21:34:12.163Z,100.00
2022-11-19T21:36:42.084Z,100.00
2022-11-19T21:39:10.784Z,100.00
2022-11-19T21:41:39.117Z,100.00
2022-11-19T21:44:07.509Z,100.00
2022-11-19T21:46:37.172Z,100.00
2022-11-19T21:49:05.592Z,100.00
2022-11-19T21:51:33.577Z,100.00
2022-11-19T21:54:01.650Z,100.00
2022-11-19T21:56:35.231Z,100.00
2022-11-19T21:59:05.118Z,100.00
2022-11-19T22:01:33.049Z,100.00
2022-11-19T22:04:02.363Z,100.00
2022-11-19T22:06:31.977Z,100.00
2022-11-19T22:09:00.056Z,100.00
2022-11-19T22:11:31.044Z,100.00
2022-11-19T22:14:01.467Z,100.00
2022-11-19T22:16:29.995Z,100.00
2022-11-19T22:18:57.921Z,100.00
2022-11-19T22:21:29.202Z,100.00
2022-11-19T22:23:57.531Z,100.00
2022-11-19T22:26:26.360Z,100.00
2022-11-19T22:28:54.394Z,100.00
2022-11-19T22:31:22.423Z,100.00
2022-11-19T22:33:52.095Z,100.00
2022-11-19T22:36:21.779Z,100.00
2022-11-19T22:38:51.872Z,100.00
2022-11-19T22:41:22.065Z,100.00
2022-11-19T22:43:50.879Z,100.00
2022-11-19T22:46:19.344Z,100.00
2022-11-19T22:48:47.573Z,100.00
2022-11-19T22:51:16.885Z,100.00
2022-11-19T22:53:45.483Z,100.00
2022-11-19T22:56:17.731Z,100.00
2022-11-19T22:58:45.726Z,100.00
2022-11-19T23:01:16.684Z,100.00
2022-11-19T23:03:44.938Z,100.00
2022-11-19T23:06:12.913Z,100.00
2022-11-19T23:08:41.057Z,100.00
2022-11-19T23:11:09.513Z,100.00
2022-11-19T23:13:40.094Z,100.00
2022-11-19T23:16:10.037Z,100.00
2022-11-19T23:18:39.800Z,100.00
2022-11-19T23:21:09.993Z,100.00
2022-11-19T23:23:38.450Z,100.00
2022-11-19T23:26:08.168Z,100.00
2022-11-19T23:28:38.470Z,100.00
2022-11-19T23:31:08.481Z,100.00
2022-11-19T23:33:36.504Z,100.00
2022-11-19T23:36:06.129Z,100.00
2022-11-19T23:38:35.330Z,100.00
2022-11-19T23:41:05.442Z,100.00
2022-11-19T23:43:34.038Z,100.00
2022-11-19T23:46:07.009Z,100.00
2022-11-19T23:48:35.640Z,100.00
2022-11-19T23:51:04.130Z,100.00
2022-11-19T23:53:32.213Z,100.00
2022-11-19T23:56:00.646Z,100.00
2022-11-19T23:58:29.215Z,100.00
